首页
METAR-TAF:

METAR-TAF

机场 :

图森, 亞利桑那州, 美国

纬度: 32-07-53N, 经度: 110-57-19W, 海拔: 805米

当前天气观测

该预报发布于1小时和14分钟前的18:53 UTC
风速8节,风向西
温度 27°C
湿度 13%
气压 1013 hPa
能見度: 16.1公里
天空无云

METAR: KTUS 021853Z 28008KT 10SM CLR 27/M04 A2992 RMK AO2 SLP090 T02671039

时间: 13:07 (20:07 UTC)

预报

该预报发布于2小时和31分钟前的17:36 UTC
预报有效从02日的 18点(UTC)到 03日的 18点(UTC)
风速10节,风向
能見度: 10公里
天空无云
从 02日的 2000点(UTC)
风速13节,风向西转西南,有时为20节阵风
能見度: 10公里
天空无云
从 03日的 0200点(UTC)
风速7节,风向西
能見度: 10公里
天空无云
从 03日的 1000点(UTC)
风速6节,风向南转南东
能見度: 10公里
天空无云

TAF: KTUS 021736Z 0218/0318 19010KT P6SM SKC FM022000 25013G20KT P6SM SKC FM030200 26007KT P6SM SKC FM031000 15006KT P6SM SKC

超过4000个机场的气象观测和天气预报(METAR&TAF报告)。

可查询的气象台以黄色和红色小点在地图上表示。

将鼠标移到小点上方,可查看气象台名称。

然后点击查看天气观测和预报。

如需切换地图:点击带黑十字的绿色按钮放大地图;点击带横线的绿色按钮缩小地图;或者点击绿色箭头查看邻近地区的地图。


METAR-TAF: